createdAt,value
2019-01-31T00:01:18.180Z,99416.26
2019-01-31T00:04:55.965Z,99416.26
2019-01-31T00:08:15.329Z,99418.56
2019-01-31T00:11:28.461Z,99416.36
2019-01-31T00:15:01.227Z,99416.50
2019-01-31T00:18:38.950Z,99412.55
2019-01-31T00:21:57.648Z,99415.64
2019-01-31T00:24:39.890Z,99412.15
2019-01-31T00:28:06.158Z,99419.33
2019-01-31T00:31:28.782Z,99414.91
2019-01-31T00:34:59.335Z,99417.44
2019-01-31T00:38:56.286Z,99415.46
2019-01-31T00:42:15.255Z,99420.63
2019-01-31T00:45:29.325Z,99431.45
2019-01-31T00:48:56.537Z,99423.55
2019-01-31T00:52:18.728Z,99421.09
2019-01-31T00:56:05.409Z,99423.98
2019-01-31T00:59:42.362Z,99420.45
2019-01-31T01:03:17.526Z,99428.52
2019-01-31T01:07:04.224Z,99432.93
2019-01-31T01:10:11.391Z,99440.82
2019-01-31T01:13:47.832Z,99441.09
2019-01-31T01:17:20.458Z,99445.69
2019-01-31T01:21:02.422Z,99449.83
2019-01-31T01:24:00.577Z,99459.99
2019-01-31T01:27:13.477Z,99456.30
2019-01-31T01:30:26.522Z,99453.58
2019-01-31T01:34:25.229Z,99461.05
2019-01-31T01:37:44.780Z,99464.59
2019-01-31T01:41:24.705Z,99461.35
2019-01-31T01:44:57.766Z,99463.70
2019-01-31T01:48:27.265Z,99463.54
2019-01-31T01:51:58.976Z,99454.69
2019-01-31T01:55:08.675Z,99460.05
2019-01-31T01:58:35.596Z,99455.05
2019-01-31T02:01:40.758Z,99453.45
2019-01-31T02:04:31.667Z,99452.63
2019-01-31T02:07:31.866Z,99451.23
2019-01-31T02:11:15.333Z,99452.69
2019-01-31T02:14:53.651Z,99454.16
2019-01-31T02:18:00.812Z,99449.09
2019-01-31T02:21:26.969Z,99443.09
2019-01-31T02:24:36.582Z,99438.75
2019-01-31T02:28:07.470Z,99440.56
2019-01-31T02:31:29.575Z,99435.70
2019-01-31T02:35:03.332Z,99435.20
2019-01-31T02:38:13.226Z,99435.38
2019-01-31T02:41:26.385Z,99428.50
2019-01-31T02:44:44.794Z,99426.33
2019-01-31T02:47:56.212Z,99431.83
2019-01-31T02:51:32.743Z,99442.28
2019-01-31T02:54:57.487Z,99446.47
2019-01-31T02:58:24.953Z,99447.57
2019-01-31T03:01:52.614Z,99441.47
2019-01-31T03:04:59.201Z,99439.58
2019-01-31T03:08:37.800Z,99437.41
2019-01-31T03:11:39.007Z,99442.45
2019-01-31T03:14:22.448Z,99443.41
2019-01-31T03:17:45.776Z,99443.34
2019-01-31T03:21:02.702Z,99441.69
2019-01-31T03:24:33.427Z,99448.34
2019-01-31T03:27:50.046Z,99448.41
2019-01-31T03:31:10.272Z,99447.75
2019-01-31T03:35:05.035Z,99441.47
2019-01-31T03:38:24.988Z,99438.11
2019-01-31T03:41:51.378Z,99436.87
2019-01-31T03:44:59.361Z,99431.33
2019-01-31T03:48:20.282Z,99419.63
2019-01-31T03:51:48.790Z,99417.58
2019-01-31T03:55:07.193Z,99408.14
2019-01-31T03:58:29.076Z,99419.14
2019-01-31T04:02:00.931Z,99423.99
2019-01-31T04:04:48.460Z,99421.28
2019-01-31T04:07:19.946Z,99411.58
2019-01-31T04:09:51.406Z,99414.34
2019-01-31T04:12:22.890Z,99414.03
2019-01-31T04:14:54.371Z,99419.09
2019-01-31T04:17:25.832Z,99424.20
2019-01-31T04:19:57.280Z,99414.10
2019-01-31T04:22:31.944Z,99412.15
2019-01-31T04:25:03.360Z,99410.27
2019-01-31T04:27:34.843Z,99408.31
2019-01-31T04:30:08.566Z,99400.55
2019-01-31T04:32:41.022Z,99420.03
2019-01-31T04:35:12.504Z,99413.03
2019-01-31T04:37:43.955Z,99424.13
2019-01-31T04:40:15.385Z,99424.30
2019-01-31T04:42:47.006Z,99422.47
2019-01-31T04:45:18.569Z,99425.47
2019-01-31T04:47:50.135Z,99436.21
2019-01-31T04:50:21.625Z,99429.55
2019-01-31T04:52:53.074Z,99438.41
2019-01-31T04:55:24.568Z,99428.69
2019-01-31T04:57:56.003Z,99429.45
2019-01-31T05:00:27.763Z,99441.12
2019-01-31T05:02:59.283Z,99436.53
2019-01-31T05:05:30.738Z,99435.53
2019-01-31T05:08:02.230Z,99409.29
2019-01-31T05:10:42.688Z,99426.80
2019-01-31T05:13:06.993Z,99435.47
2019-01-31T05:15:38.764Z,99431.72
2019-01-31T05:18:10.236Z,99428.99
2019-01-31T05:20:41.691Z,99426.87
2019-01-31T05:23:13.260Z,99426.87
2019-01-31T05:25:44.706Z,99422.58
2019-01-31T05:28:16.211Z,99423.05
2019-01-31T05:30:48.072Z,99434.64
2019-01-31T05:33:19.755Z,99433.71
2019-01-31T05:35:51.229Z,99437.36
2019-01-31T05:38:22.678Z,99435.88
2019-01-31T05:40:55.538Z,99430.05
2019-01-31T05:43:27.473Z,99426.87
2019-01-31T05:45:58.966Z,99417.34
2019-01-31T05:48:30.431Z,99402.12
2019-01-31T05:51:01.932Z,99395.95
2019-01-31T05:53:33.374Z,99402.83
2019-01-31T05:56:04.928Z,99409.53
2019-01-31T05:58:36.452Z,99405.28
2019-01-31T06:01:08.249Z,99400.83
2019-01-31T06:03:39.965Z,99404.95
2019-01-31T06:06:11.434Z,99412.92
2019-01-31T06:08:42.976Z,99412.26
2019-01-31T06:11:14.425Z,99406.97
2019-01-31T06:13:45.892Z,99413.80
2019-01-31T06:16:17.594Z,99417.30
2019-01-31T06:18:49.162Z,99420.52
2019-01-31T06:21:20.582Z,99424.98
2019-01-31T06:23:52.071Z,99422.98
2019-01-31T06:26:23.539Z,99422.34
2019-01-31T06:28:54.980Z,99424.80
2019-01-31T06:31:26.461Z,99425.94
2019-01-31T06:33:57.946Z,99430.75
2019-01-31T06:36:29.503Z,99430.29
2019-01-31T06:39:01.130Z,99424.41
2019-01-31T06:41:34.175Z,99432.52
2019-01-31T06:44:05.723Z,99425.44
2019-01-31T06:46:37.370Z,99433.15
2019-01-31T06:49:08.882Z,99438.00
2019-01-31T06:51:40.354Z,99432.55
2019-01-31T06:54:11.954Z,99431.28
2019-01-31T06:56:45.574Z,99432.41
2019-01-31T06:59:17.072Z,99433.80
2019-01-31T07:01:48.865Z,99438.70
2019-01-31T07:04:20.684Z,99426.67
2019-01-31T07:06:52.178Z,99429.83
2019-01-31T07:09:23.615Z,99439.92
2019-01-31T07:11:55.154Z,99439.92
2019-01-31T07:14:26.668Z,99439.13
2019-01-31T07:16:58.407Z,99429.27
2019-01-31T07:19:29.849Z,99429.96
2019-01-31T07:22:01.385Z,99437.27
2019-01-31T07:24:32.898Z,99434.15
2019-01-31T07:27:04.370Z,99429.39
2019-01-31T07:29:36.184Z,99428.47
2019-01-31T07:32:07.971Z,99426.80
2019-01-31T07:34:39.399Z,99431.85
2019-01-31T07:37:10.839Z,99434.17
2019-01-31T07:39:42.291Z,99441.58
2019-01-31T07:42:13.791Z,99445.23
2019-01-31T07:44:49.946Z,99444.23
2019-01-31T07:47:21.672Z,99444.62
2019-01-31T07:49:53.105Z,99441.59
2019-01-31T07:52:24.547Z,99440.59
2019-01-31T07:54:56.082Z,99439.82
2019-01-31T07:57:27.615Z,99436.83
2019-01-31T07:59:59.090Z,99442.28
2019-01-31T08:02:30.638Z,99437.87
2019-01-31T08:05:05.244Z,99438.63
2019-01-31T08:07:36.684Z,99436.94
2019-01-31T08:10:13.224Z,99435.98
2019-01-31T08:12:44.708Z,99441.09
2019-01-31T08:15:17.647Z,99446.14
2019-01-31T08:17:49.433Z,99427.08
2019-01-31T08:20:20.988Z,99429.87
2019-01-31T08:22:52.437Z,99441.63
2019-01-31T08:25:23.964Z,99444.69
2019-01-31T08:27:55.599Z,99446.25
2019-01-31T08:30:30.721Z,99451.44
2019-01-31T08:33:02.579Z,99453.83
2019-01-31T08:35:34.107Z,99462.50
2019-01-31T08:38:05.584Z,99462.39
2019-01-31T08:40:37.090Z,99463.98
2019-01-31T08:43:08.583Z,99462.63
2019-01-31T08:45:40.107Z,99465.16
2019-01-31T08:48:11.913Z,99455.05
2019-01-31T08:50:43.476Z,99455.55
2019-01-31T08:53:15.041Z,99457.81
2019-01-31T08:55:47.581Z,99454.29
2019-01-31T08:58:19.420Z,99454.76
2019-01-31T09:00:50.954Z,99458.81
2019-01-31T09:03:22.777Z,99466.95
2019-01-31T09:05:54.534Z,99456.05
2019-01-31T09:08:26.335Z,99454.02
2019-01-31T09:10:57.988Z,99453.99
2019-01-31T09:13:31.027Z,99457.48
2019-01-31T09:16:02.549Z,99457.75
2019-01-31T09:18:34.018Z,99462.63
2019-01-31T09:21:35.810Z,99466.35
2019-01-31T09:25:26.339Z,99463.03
2019-01-31T09:28:31.267Z,99462.46
2019-01-31T09:31:52.142Z,99458.97
2019-01-31T09:35:08.204Z,99455.94
2019-01-31T09:38:57.832Z,99466.33
2019-01-31T09:42:07.184Z,99451.53
2019-01-31T09:45:23.939Z,99456.15
2019-01-31T09:48:24.810Z,99455.41
2019-01-31T09:51:51.963Z,99460.89
2019-01-31T09:55:06.986Z,99460.33
2019-01-31T09:58:23.958Z,99461.70
2019-01-31T10:01:54.270Z,99462.83
2019-01-31T10:05:22.108Z,99457.94
2019-01-31T10:08:30.049Z,99448.69
2019-01-31T10:11:46.419Z,99443.11
2019-01-31T10:15:04.124Z,99439.70
2019-01-31T10:18:42.046Z,99436.58
2019-01-31T10:22:02.638Z,99438.22
2019-01-31T10:25:08.290Z,99432.56
2019-01-31T10:28:29.944Z,99437.75
2019-01-31T10:31:55.590Z,99432.80
2019-01-31T10:35:39.022Z,99434.41
2019-01-31T10:39:12.838Z,99438.98
2019-01-31T10:42:08.348Z,99436.16
2019-01-31T10:45:08.289Z,99433.72
2019-01-31T10:48:30.751Z,99435.34
2019-01-31T10:51:44.720Z,99436.10
2019-01-31T10:54:40.553Z,99419.70
2019-01-31T10:58:12.564Z,99419.94
2019-01-31T11:01:55.198Z,99419.65
2019-01-31T11:05:08.687Z,99410.63
2019-01-31T11:08:17.320Z,99407.79
2019-01-31T11:11:09.993Z,99405.27
2019-01-31T11:14:18.032Z,99401.98
2019-01-31T11:17:43.633Z,99404.91
2019-01-31T11:21:16.138Z,99403.61
2019-01-31T11:24:15.235Z,99404.54
2019-01-31T11:27:51.086Z,99411.61
2019-01-31T11:30:41.759Z,99408.80
2019-01-31T11:33:29.975Z,99409.34
2019-01-31T11:36:58.323Z,99407.17
2019-01-31T11:40:29.458Z,99404.66
2019-01-31T11:43:33.793Z,99405.59
2019-01-31T11:46:49.595Z,99409.77
2019-01-31T11:50:05.435Z,99395.81
2019-01-31T11:53:13.888Z,99402.22
2019-01-31T11:56:41.669Z,99400.14
2019-01-31T11:59:13.336Z,99401.91
2019-01-31T12:01:44.850Z,99400.52
2019-01-31T12:04:20.031Z,99406.92
2019-01-31T12:06:51.500Z,99411.18
2019-01-31T12:09:23.651Z,99402.64
2019-01-31T12:11:55.349Z,99407.14
2019-01-31T12:14:27.109Z,99398.00
2019-01-31T12:16:58.546Z,99399.08
2019-01-31T12:19:30.333Z,99399.37
2019-01-31T12:22:05.736Z,99392.90
2019-01-31T12:24:37.290Z,99389.83
2019-01-31T12:27:08.746Z,99387.48
2019-01-31T12:29:40.414Z,99377.52
2019-01-31T12:32:12.049Z,99378.01
2019-01-31T12:34:43.734Z,99388.61
2019-01-31T12:37:16.303Z,99385.58
2019-01-31T12:39:47.815Z,99380.86
2019-01-31T12:42:19.276Z,99384.44
2019-01-31T12:44:51.006Z,99372.22
2019-01-31T12:47:22.466Z,99374.99
2019-01-31T12:49:53.972Z,99382.67
2019-01-31T12:52:25.450Z,99384.44
2019-01-31T12:54:57.014Z,99382.99
2019-01-31T12:57:28.468Z,99370.92
2019-01-31T13:00:00.248Z,99377.27
2019-01-31T13:02:31.954Z,99377.87
2019-01-31T13:05:03.457Z,99378.20
2019-01-31T13:07:34.954Z,99373.52
2019-01-31T13:10:06.949Z,99374.30
2019-01-31T13:12:48.323Z,99363.67
2019-01-31T13:15:12.023Z,99362.63
2019-01-31T13:17:43.535Z,99359.78
2019-01-31T13:20:23.934Z,99353.63
2019-01-31T13:22:57.820Z,99363.14
2019-01-31T13:25:29.900Z,99357.19
2019-01-31T13:28:01.359Z,99349.34
2019-01-31T13:30:33.288Z,99345.69
2019-01-31T13:33:04.776Z,99346.05
2019-01-31T13:35:36.295Z,99344.15
2019-01-31T13:38:07.882Z,99340.72
2019-01-31T13:40:40.437Z,99343.00
2019-01-31T13:43:11.912Z,99349.55
2019-01-31T13:45:43.692Z,99351.39
2019-01-31T13:48:17.054Z,99348.58
2019-01-31T13:50:48.552Z,99350.70
2019-01-31T13:53:20.054Z,99351.17
2019-01-31T13:55:51.481Z,99352.54
2019-01-31T13:58:22.961Z,99350.23
2019-01-31T14:00:54.692Z,99345.13
2019-01-31T14:03:26.322Z,99348.19
2019-01-31T14:05:57.754Z,99357.58
2019-01-31T14:08:29.284Z,99354.13
2019-01-31T14:11:00.734Z,99360.76
2019-01-31T14:13:32.382Z,99359.70
2019-01-31T14:16:03.966Z,99361.54
2019-01-31T14:18:35.678Z,99359.16
2019-01-31T14:21:07.206Z,99362.05
2019-01-31T14:23:38.644Z,99364.12
2019-01-31T14:26:10.140Z,99364.33
2019-01-31T14:28:41.586Z,99362.64
2019-01-31T14:31:13.353Z,99363.11
2019-01-31T14:33:45.678Z,99366.61
2019-01-31T14:36:17.221Z,99367.41
2019-01-31T14:38:48.733Z,99371.80
2019-01-31T14:41:20.216Z,99366.25
2019-01-31T14:43:51.702Z,99368.70
2019-01-31T14:46:23.482Z,99369.67
2019-01-31T14:48:54.940Z,99363.26
2019-01-31T14:51:26.453Z,99362.72
2019-01-31T14:53:57.883Z,99367.14
2019-01-31T14:56:29.407Z,99368.91
2019-01-31T14:59:00.869Z,99365.70
2019-01-31T15:01:32.746Z,99362.57
2019-01-31T15:04:04.216Z,99368.98
2019-01-31T15:06:35.688Z,99368.75
2019-01-31T15:09:09.631Z,99373.16
2019-01-31T15:11:41.534Z,99372.11
2019-01-31T15:14:13.077Z,99376.44
2019-01-31T15:16:44.911Z,99376.14
2019-01-31T15:19:16.372Z,99376.83
2019-01-31T15:21:50.420Z,99380.25
2019-01-31T15:24:21.965Z,99385.37
2019-01-31T15:26:53.825Z,99384.14
2019-01-31T15:29:26.657Z,99387.48
2019-01-31T15:31:58.452Z,99396.12
2019-01-31T15:34:29.887Z,99395.86
2019-01-31T15:37:02.184Z,99401.44
2019-01-31T15:39:33.981Z,99401.67
2019-01-31T15:42:05.468Z,99399.68
2019-01-31T15:44:43.325Z,99403.03
2019-01-31T15:47:10.604Z,99403.50
2019-01-31T15:49:44.895Z,99411.07
2019-01-31T15:52:16.411Z,99405.42
2019-01-31T15:54:50.320Z,99407.19
2019-01-31T15:57:21.780Z,99410.23
2019-01-31T15:59:53.298Z,99408.84
2019-01-31T16:02:25.135Z,99412.99
2019-01-31T16:04:56.793Z,99414.75
2019-01-31T16:07:30.907Z,99413.96
2019-01-31T16:10:03.741Z,99397.09
2019-01-31T16:12:35.364Z,99410.40
2019-01-31T16:15:10.819Z,99415.88
2019-01-31T16:17:42.459Z,99415.88
2019-01-31T16:20:14.417Z,99412.85
2019-01-31T16:22:46.140Z,99416.14
2019-01-31T16:25:17.673Z,99412.69
2019-01-31T16:27:49.198Z,99418.20
2019-01-31T16:30:21.240Z,99418.42
2019-01-31T16:32:53.167Z,99421.19
2019-01-31T16:35:24.682Z,99420.32
2019-01-31T16:37:56.259Z,99423.24
2019-01-31T16:40:28.019Z,99423.61
2019-01-31T16:42:59.526Z,99423.31
2019-01-31T16:45:34.112Z,99420.79
2019-01-31T16:48:06.898Z,99425.44
2019-01-31T16:50:38.596Z,99426.38
2019-01-31T16:53:10.891Z,99418.20
2019-01-31T16:55:42.403Z,99419.89
2019-01-31T16:58:14.070Z,99418.12
2019-01-31T17:00:45.578Z,99417.66
2019-01-31T17:03:17.330Z,99419.89
2019-01-31T17:05:48.792Z,99422.55
2019-01-31T17:08:20.378Z,99420.79
2019-01-31T17:10:51.922Z,99414.77
2019-01-31T17:13:23.399Z,99410.81
2019-01-31T17:15:55.045Z,99410.81
2019-01-31T17:18:26.708Z,99402.56
2019-01-31T17:20:58.324Z,99409.12
2019-01-31T17:23:29.810Z,99413.48
2019-01-31T17:26:01.462Z,99411.31
2019-01-31T17:28:33.008Z,99410.71
2019-01-31T17:31:04.548Z,99409.81
2019-01-31T17:33:36.038Z,99411.78
2019-01-31T17:36:07.568Z,99410.41
2019-01-31T17:38:39.052Z,99408.80
2019-01-31T17:41:10.549Z,99409.39
2019-01-31T17:43:42.059Z,99410.27
2019-01-31T17:46:13.682Z,99409.22
2019-01-31T17:48:45.417Z,99413.29
2019-01-31T17:51:18.681Z,99420.39
2019-01-31T17:53:50.353Z,99423.35
2019-01-31T17:56:21.827Z,99423.75
2019-01-31T17:58:53.572Z,99418.16
2019-01-31T18:01:25.235Z,99421.30
2019-01-31T18:03:57.141Z,99422.59
2019-01-31T18:06:28.806Z,99426.95
2019-01-31T18:09:00.304Z,99421.44
2019-01-31T18:11:32.420Z,99423.96
2019-01-31T18:14:04.050Z,99421.97
2019-01-31T18:16:35.653Z,99418.91
2019-01-31T18:19:07.651Z,99427.92
2019-01-31T18:21:39.382Z,99427.56
2019-01-31T18:24:10.908Z,99437.54
2019-01-31T18:26:42.772Z,99434.88
2019-01-31T18:29:14.460Z,99431.74
2019-01-31T18:31:46.046Z,99433.65
2019-01-31T18:34:17.916Z,99431.95
2019-01-31T18:36:49.686Z,99431.11
2019-01-31T18:39:22.462Z,99437.59
2019-01-31T18:41:54.082Z,99432.19
2019-01-31T18:44:25.658Z,99429.19
2019-01-31T18:46:57.328Z,99432.25
2019-01-31T18:49:29.384Z,99432.69
2019-01-31T18:52:01.242Z,99436.13
2019-01-31T18:54:32.916Z,99435.52
2019-01-31T18:57:05.818Z,99434.22
2019-01-31T18:59:37.349Z,99423.92
2019-01-31T19:02:08.960Z,99429.33
2019-01-31T19:04:41.188Z,99432.32
2019-01-31T19:07:13.867Z,99432.75
2019-01-31T19:09:45.395Z,99435.75
2019-01-31T19:12:16.915Z,99441.62
2019-01-31T19:14:48.528Z,99443.06
2019-01-31T19:17:20.148Z,99437.94
2019-01-31T19:19:51.873Z,99438.88
2019-01-31T19:22:23.470Z,99431.86
2019-01-31T19:24:55.238Z,99436.58
2019-01-31T19:27:27.056Z,99435.28
2019-01-31T19:29:58.711Z,99429.33
2019-01-31T19:32:30.424Z,99427.50
2019-01-31T19:35:02.384Z,99431.32
2019-01-31T19:37:35.323Z,99435.81
2019-01-31T19:40:07.958Z,99429.94
2019-01-31T19:42:39.618Z,99436.35
2019-01-31T19:45:18.883Z,99435.81
2019-01-31T19:47:50.593Z,99432.75
2019-01-31T19:50:22.343Z,99431.72
2019-01-31T19:52:54.135Z,99432.34
2019-01-31T19:55:27.433Z,99434.61
2019-01-31T19:57:59.075Z,99431.18
2019-01-31T20:00:30.629Z,99431.18
2019-01-31T20:03:02.231Z,99431.58
2019-01-31T20:05:34.430Z,99430.34
2019-01-31T20:08:08.005Z,99428.80
2019-01-31T20:10:42.498Z,99426.99
2019-01-31T20:13:15.509Z,99426.12
2019-01-31T20:15:47.039Z,99431.72
2019-01-31T20:18:18.847Z,99432.06
2019-01-31T20:20:50.907Z,99429.87
2019-01-31T20:23:22.695Z,99437.51
2019-01-31T20:25:54.230Z,99433.84
2019-01-31T20:28:25.973Z,99432.08
2019-01-31T20:30:57.560Z,99433.75
2019-01-31T20:33:29.156Z,99432.91
2019-01-31T20:36:00.977Z,99428.13
2019-01-31T20:38:32.572Z,99424.91
2019-01-31T20:41:04.158Z,99425.02
2019-01-31T20:43:36.139Z,99421.77
2019-01-31T20:46:07.714Z,99424.12
2019-01-31T20:48:39.312Z,99422.22
2019-01-31T20:51:12.726Z,99423.25
2019-01-31T20:53:44.662Z,99423.48
2019-01-31T20:56:16.208Z,99427.14
2019-01-31T20:58:47.848Z,99429.44
2019-01-31T21:01:19.414Z,99432.73
2019-01-31T21:03:51.278Z,99430.06
2019-01-31T21:06:23.693Z,99431.23
2019-01-31T21:08:55.297Z,99435.27
2019-01-31T21:11:26.830Z,99434.28
2019-01-31T21:13:58.425Z,99434.52
2019-01-31T21:16:29.992Z,99440.70
2019-01-31T21:19:01.590Z,99434.48
2019-01-31T21:21:33.415Z,99443.63
2019-01-31T21:24:05.103Z,99444.45
2019-01-31T21:26:36.656Z,99440.93
2019-01-31T21:29:08.209Z,99448.03
2019-01-31T21:31:39.807Z,99447.53
2019-01-31T21:34:11.310Z,99440.61
2019-01-31T21:36:43.095Z,99447.70
2019-01-31T21:39:17.236Z,99440.96
2019-01-31T21:41:49.975Z,99439.83
2019-01-31T21:44:21.588Z,99442.23
2019-01-31T21:47:02.762Z,99445.12
2019-01-31T21:49:26.388Z,99444.92
2019-01-31T21:51:57.940Z,99441.30
2019-01-31T21:54:29.492Z,99443.98
2019-01-31T21:57:00.936Z,99448.89
2019-01-31T21:59:32.443Z,99449.63
2019-01-31T22:02:03.885Z,99454.09
2019-01-31T22:04:35.345Z,99453.63
2019-01-31T22:07:07.063Z,99452.86
2019-01-31T22:09:38.603Z,99447.73
2019-01-31T22:12:10.072Z,99450.58
2019-01-31T22:14:41.547Z,99453.58
2019-01-31T22:17:14.710Z,99455.36
2019-01-31T22:19:46.347Z,99456.38
2019-01-31T22:22:17.803Z,99444.54
2019-01-31T22:24:49.299Z,99460.33
2019-01-31T22:27:20.803Z,99458.88
2019-01-31T22:29:52.345Z,99458.06
2019-01-31T22:32:23.802Z,99462.11
2019-01-31T22:34:55.337Z,99457.97
2019-01-31T22:37:27.184Z,99458.32
2019-01-31T22:39:58.702Z,99453.08
2019-01-31T22:42:30.164Z,99452.31
2019-01-31T22:45:01.729Z,99451.13
2019-01-31T22:47:34.078Z,99457.38
2019-01-31T22:50:07.120Z,99458.12
2019-01-31T22:52:38.838Z,99456.82
2019-01-31T22:55:11.946Z,99459.81
2019-01-31T22:57:43.762Z,99457.34
2019-01-31T23:01:09.091Z,99453.33
2019-01-31T23:03:41.287Z,99451.45
2019-01-31T23:06:15.658Z,99448.57
2019-01-31T23:08:47.178Z,99447.98
2019-01-31T23:11:18.828Z,99449.69
2019-01-31T23:13:50.391Z,99447.11
2019-01-31T23:16:22.124Z,99453.39
2019-01-31T23:18:53.644Z,99455.77
2019-01-31T23:21:25.382Z,99465.70
2019-01-31T23:23:56.896Z,99456.35
2019-01-31T23:26:28.439Z,99459.73
2019-01-31T23:28:59.998Z,99461.80
2019-01-31T23:31:31.534Z,99461.33
2019-01-31T23:34:03.197Z,99460.37
2019-01-31T23:36:34.707Z,99458.48
2019-01-31T23:39:11.010Z,99457.25
2019-01-31T23:41:42.698Z,99469.55
2019-01-31T23:44:14.132Z,99475.50
2019-01-31T23:46:45.598Z,99474.01
2019-01-31T23:49:17.041Z,99475.43
2019-01-31T23:51:48.488Z,99480.22
2019-01-31T23:54:20.153Z,99488.64
2019-01-31T23:56:51.625Z,99488.70
2019-01-31T23:59:23.154Z,99490.59
